Time;durP1;ratioP1;P1;durP2;ratioP2;P2;SDS_P1;SDS_P2;PMS_P1;PMS_P2;Temp;Humidity;BMP_temperature;BMP_pressure;BME280_temperature;BME280_humidity;BME280_pressure;Samples;Min_cycle;Max_cycle;Signal;HPM_P1;HPM_P2
2021/06/07 00:01:59;;;;;;;5.22;2.90;;;;;;;13.32;71.84;102423.47;5033854;28;20073;-53
2021/06/07 00:04:28;;;;;;;8.35;3.22;;;;;;;13.31;71.71;102425.28;5035540;28;20257;-51
2021/06/07 00:06:56;;;;;;;7.95;3.63;;;;;;;13.16;72.27;102423.44;5032264;28;20077;-58
2021/06/07 00:09:24;;;;;;;5.35;2.90;;;;;;;13.12;72.77;102417.44;5032881;28;20111;-60
2021/06/07 00:11:54;;;;;;;5.88;2.97;;;;;;;13.17;72.47;102423.34;5034060;28;20553;-58
2021/06/07 00:14:30;;;;;;;7.13;3.15;;;;;;;13.07;73.23;102421.25;5035184;28;20049;-54
2021/06/07 00:16:57;;;;;;;5.90;2.63;;;;;;;13.13;73.16;102428.84;5034917;28;20049;-49
2021/06/07 00:19:30;;;;;;;7.97;3.40;;;;;;;13.07;72.99;102424.75;5035020;28;20120;-51
2021/06/07 00:21:58;;;;;;;5.97;3.20;;;;;;;13.11;73.03;102423.66;5018065;28;20079;-52
2021/06/07 00:24:25;;;;;;;6.22;3.22;;;;;;;13.17;72.58;102420.72;5033898;28;20072;-52
2021/06/07 00:27:21;;;;;;;7.68;3.70;;;;;;;13.02;73.31;102422.34;5058575;28;20068;-56
2021/06/07 00:30:25;;;;;;;5.63;3.47;;;;;;;12.97;73.65;102419.06;5057336;28;20094;-54
2021/06/07 00:32:53;;;;;;;9.68;4.72;;;;;;;12.92;73.67;102421.09;5055389;28;20472;-58
2021/06/07 00:35:24;;;;;;;7.63;3.67;;;;;;;12.83;74.33;102432.97;5053890;28;20068;-58
2021/06/07 00:37:52;;;;;;;8.25;3.75;;;;;;;12.83;74.38;102426.84;5051887;28;20064;-52
2021/06/07 00:40:22;;;;;;;7.40;3.25;;;;;;;12.89;73.94;102425.69;5054833;28;20067;-53
2021/06/07 00:42:51;;;;;;;6.55;3.35;;;;;;;12.75;74.38;102424.56;5054606;28;20053;-53
2021/06/07 00:45:22;;;;;;;6.20;3.30;;;;;;;12.71;74.30;102425.66;5052751;28;20049;-50
2021/06/07 00:47:52;;;;;;;7.25;3.55;;;;;;;12.72;74.44;102423.84;5053114;28;20049;-57
2021/06/07 00:50:24;;;;;;;8.13;3.33;;;;;;;12.77;74.15;102424.50;5054517;28;20530;-52
2021/06/07 00:53:02;;;;;;;9.35;3.88;;;;;;;12.75;73.73;102424.56;5054955;28;20486;-53
2021/06/07 00:55:42;;;;;;;7.88;3.65;;;;;;;12.76;73.90;102428.06;5054619;28;20049;-59
2021/06/07 00:58:09;;;;;;;7.65;3.60;;;;;;;12.77;73.66;102432.41;5054562;28;20048;-57
2021/06/07 01:00:39;;;;;;;7.88;3.42;;;;;;;12.65;74.11;102432.09;5053638;28;20044;-57
2021/06/07 01:03:08;;;;;;;6.47;3.33;;;;;;;12.55;74.03;102422.06;5052881;28;20107;-58
2021/06/07 01:05:44;;;;;;;6.60;3.53;;;;;;;12.54;73.96;102426.47;5051997;28;20503;-54
2021/06/07 01:08:12;;;;;;;6.72;3.20;;;;;;;12.52;73.80;102417.78;5054415;28;20107;-52
2021/06/07 01:10:40;;;;;;;8.38;3.17;;;;;;;12.55;73.93;102422.91;5054600;28;20045;-59
2021/06/07 01:13:08;;;;;;;7.97;3.30;;;;;;;12.38;73.48;102422.84;5054583;28;20080;-53
2021/06/07 01:15:35;;;;;;;5.63;3.28;;;;;;;12.38;73.86;102420.22;5053073;28;20049;-52
2021/06/07 01:18:02;;;;;;;6.20;2.97;;;;;;;12.43;73.12;102418.22;5054298;28;20621;-53
2021/06/07 01:20:30;;;;;;;6.15;3.05;;;;;;;12.44;73.41;102414.66;5052577;28;20045;-58
2021/06/07 01:22:57;;;;;;;7.65;2.90;;;;;;;12.40;72.61;102416.56;5050514;28;20041;-58
2021/06/07 01:25:30;;;;;;;6.65;3.05;;;;;;;12.34;72.78;102412.44;5053130;28;20495;-52
2021/06/07 01:27:58;;;;;;;6.85;2.95;;;;;;;12.26;73.60;102414.59;5052701;28;20480;-53
2021/06/07 01:30:28;;;;;;;6.65;3.08;;;;;;;12.30;73.16;102413.53;5053899;28;20056;-58
2021/06/07 01:32:56;;;;;;;6.65;3.00;;;;;;;12.33;73.55;102410.75;5052725;28;20059;-58
2021/06/07 01:35:25;;;;;;;5.55;2.70;;;;;;;12.29;72.76;102408.31;5053822;28;20063;-53
2021/06/07 01:37:54;;;;;;;5.57;2.75;;;;;;;12.21;73.09;102408.69;5053676;28;20036;-53
2021/06/07 01:40:24;;;;;;;6.60;2.72;;;;;;;12.15;73.03;102404.56;5052036;28;20124;-58
2021/06/07 01:42:52;;;;;;;6.75;3.70;;;;;;;12.10;73.06;102408.34;5050901;28;20049;-54
2021/06/07 01:45:23;;;;;;;6.00;3.08;;;;;;;12.10;73.16;102400.44;5053728;28;20057;-53
2021/06/07 01:47:51;;;;;;;7.88;3.13;;;;;;;12.13;72.79;102395.00;5053536;28;20103;-54
2021/06/07 01:50:18;;;;;;;6.40;2.72;;;;;;;12.10;73.22;102396.00;5053084;28;20106;-58
2021/06/07 01:52:47;;;;;;;5.07;2.70;;;;;;;12.09;73.09;102404.00;5052203;28;20106;-54
2021/06/07 01:55:20;;;;;;;6.80;2.97;;;;;;;12.07;72.93;102398.78;5053323;28;20499;-58
2021/06/07 01:57:48;;;;;;;6.15;2.78;;;;;;;12.03;72.79;102393.75;5053797;28;20055;-58
2021/06/07 02:00:31;;;;;;;5.70;2.97;;;;;;;11.89;73.43;102386.41;5053565;28;20052;-58
2021/06/07 02:02:59;;;;;;;6.18;3.03;;;;;;;11.93;72.81;102394.13;5053488;28;20053;-53
2021/06/07 02:05:28;;;;;;;8.38;2.85;;;;;;;11.88;73.34;102392.63;5052680;28;20041;-51
2021/06/07 02:07:58;;;;;;;5.63;2.65;;;;;;;11.86;72.51;102387.41;5052332;28;20061;-53
2021/06/07 02:10:28;;;;;;;5.30;2.50;;;;;;;11.89;73.21;102387.28;5053349;28;20053;-57
2021/06/07 02:12:55;;;;;;;4.90;2.80;;;;;;;11.84;72.81;102386.63;5053419;28;20045;-57
2021/06/07 02:15:23;;;;;;;5.35;2.40;;;;;;;11.89;72.44;102384.66;5051802;28;20057;-53
2021/06/07 02:17:51;;;;;;;5.95;2.45;;;;;;;11.86;72.70;102390.03;5052436;28;20063;-52
2021/06/07 02:20:20;;;;;;;4.68;2.08;;;;;;;11.88;71.58;102385.56;5051200;28;20049;-58
2021/06/07 02:22:48;;;;;;;5.03;2.45;;;;;;;11.84;71.34;102384.00;5052828;28;20051;-53
2021/06/07 02:25:18;;;;;;;7.57;2.50;;;;;;;11.82;72.07;102391.09;5052256;28;20092;-51
2021/06/07 02:27:45;;;;;;;6.13;2.28;;;;;;;11.82;72.19;102391.09;5050741;28;20044;-53
2021/06/07 02:30:19;;;;;;;6.80;2.63;;;;;;;11.82;72.00;102393.75;5034341;28;20082;-53
2021/06/07 02:32:47;;;;;;;5.32;2.40;;;;;;;11.79;71.58;102392.13;5052826;28;20071;-57
2021/06/07 02:35:16;;;;;;;5.57;2.80;;;;;;;11.62;72.81;102387.63;5051473;28;20147;-52
2021/06/07 02:37:44;;;;;;;7.03;2.78;;;;;;;11.66;72.26;102388.34;5052941;28;20059;-58
2021/06/07 02:40:13;;;;;;;5.05;2.50;;;;;;;11.74;72.03;102387.97;5051223;28;20084;-58
2021/06/07 02:42:41;;;;;;;5.40;2.80;;;;;;;11.69;72.83;102382.09;5049063;28;20411;-53
2021/06/07 02:45:12;;;;;;;5.68;2.97;;;;;;;11.62;73.07;102382.34;5050941;28;20133;-53
2021/06/07 02:47:42;;;;;;;6.68;2.83;;;;;;;11.59;73.29;102384.25;5052595;28;20060;-57
2021/06/07 02:50:12;;;;;;;5.70;2.67;;;;;;;11.64;73.51;102391.06;5052227;28;20385;-53
2021/06/07 02:52:47;;;;;;;7.30;2.92;;;;;;;11.65;73.49;102397.16;5052795;28;20068;-54
2021/06/07 02:55:20;;;;;;;5.93;2.70;;;;;;;11.70;73.00;102395.19;5052124;28;20045;-58
2021/06/07 02:57:47;;;;;;;7.53;3.15;;;;;;;11.67;73.50;102393.53;5051139;28;20387;-59
2021/06/07 03:00:22;;;;;;;7.25;3.25;;;;;;;11.60;73.73;102394.75;5051905;28;20053;-53
2021/06/07 03:02:49;;;;;;;4.68;2.75;;;;;;;11.63;74.04;102397.25;5052218;28;20455;-58
2021/06/07 03:05:16;;;;;;;5.32;2.95;;;;;;;11.61;74.11;102400.88;5051764;28;20039;-58
2021/06/07 03:07:43;;;;;;;4.72;2.53;;;;;;;11.66;73.97;102401.53;5051938;28;20435;-53
2021/06/07 03:10:11;;;;;;;6.60;3.15;;;;;;;11.62;73.84;102403.44;5051752;28;20041;-53
2021/06/07 03:12:39;;;;;;;7.22;3.08;;;;;;;11.64;73.36;102406.88;5049625;28;20419;-51
2021/06/07 03:15:08;;;;;;;7.82;3.42;;;;;;;11.67;73.48;102404.09;5049875;28;20068;-53
2021/06/07 03:17:35;;;;;;;7.00;3.50;;;;;;;11.65;73.86;102410.34;5049971;28;20071;-53
2021/06/07 03:20:06;;;;;;;6.70;2.88;;;;;;;11.67;74.34;102403.25;5051907;28;20106;-52
2021/06/07 03:22:33;;;;;;;6.55;3.30;;;;;;;11.60;73.59;102401.78;5049590;28;20389;-54
2021/06/07 03:25:00;;;;;;;8.25;3.40;;;;;;;11.66;74.18;102405.00;5049618;28;20033;-58
2021/06/07 03:27:27;;;;;;;6.97;3.42;;;;;;;11.62;74.09;102403.44;5051942;28;20036;-57
2021/06/07 03:29:54;;;;;;;7.82;3.50;;;;;;;11.53;74.77;102408.25;5051990;28;20041;-51
2021/06/07 03:32:22;;;;;;;7.80;3.10;;;;;;;11.45;74.97;102413.84;5051935;28;20415;-57
2021/06/07 03:34:49;;;;;;;5.80;3.00;;;;;;;11.49;74.86;102413.66;5052030;28;20407;-53
2021/06/07 03:37:16;;;;;;;6.10;3.42;;;;;;;11.49;74.67;102415.44;5049128;28;20053;-53
2021/06/07 03:39:43;;;;;;;7.07;2.80;;;;;;;11.49;74.62;102416.31;5048621;28;20554;-58
2021/06/07 03:42:10;;;;;;;6.55;3.20;;;;;;;11.47;74.59;102412.03;5051925;28;20053;-57
2021/06/07 03:44:37;;;;;;;7.05;3.20;;;;;;;11.52;74.67;102411.81;5050153;28;20047;-53
2021/06/07 03:47:04;;;;;;;7.57;3.30;;;;;;;11.50;74.65;102419.78;5049556;28;20053;-58
2021/06/07 03:49:32;;;;;;;8.85;3.22;;;;;;;11.52;74.55;102414.44;5051091;28;20049;-54
2021/06/07 03:51:59;;;;;;;4.75;2.67;;;;;;;11.54;74.16;102407.34;5048982;28;20066;-58
2021/06/07 03:54:26;;;;;;;5.88;3.28;;;;;;;11.59;74.56;102415.88;5032370;28;20399;-58
2021/06/07 03:56:53;;;;;;;5.07;2.95;;;;;;;11.62;73.76;102415.75;5051853;28;20494;-51
2021/06/07 03:59:20;;;;;;;7.68;3.35;;;;;;;11.75;73.41;102416.94;5050541;28;20041;-52
2021/06/07 04:01:47;;;;;;;5.05;2.60;;;;;;;11.76;73.84;102417.75;5051717;28;20057;-52
2021/06/07 04:04:14;;;;;;;5.68;2.80;;;;;;;11.80;73.25;102409.63;5050572;28;20040;-58
2021/06/07 04:06:41;;;;;;;7.00;3.10;;;;;;;11.87;73.10;102419.91;5051728;28;20040;-52
2021/06/07 04:09:08;;;;;;;6.72;2.70;;;;;;;11.88;72.84;102411.09;5050476;28;20095;-57
2021/06/07 04:11:35;;;;;;;7.22;2.72;;;;;;;11.82;73.48;102417.47;5051718;28;20060;-53
2021/06/07 04:14:02;;;;;;;5.25;2.85;;;;;;;11.82;73.63;102412.19;5034043;28;20041;-58
2021/06/07 04:16:29;;;;;;;7.75;2.88;;;;;;;11.84;73.62;102413.84;5051651;28;20041;-58
2021/06/07 04:18:57;;;;;;;7.13;2.80;;;;;;;11.83;74.41;102414.78;5050348;28;20110;-52
2021/06/07 04:21:24;;;;;;;8.32;3.30;;;;;;;11.82;73.37;102413.06;5051407;28;20040;-53
2021/06/07 04:23:51;;;;;;;6.65;2.85;;;;;;;11.82;74.09;102418.34;5051519;28;20049;-57
2021/06/07 04:26:18;;;;;;;5.40;2.85;;;;;;;11.84;73.93;102420.91;5051638;28;20053;-51
2021/06/07 04:28:45;;;;;;;5.97;2.88;;;;;;;11.79;73.76;102414.97;5053079;28;20041;-54
2021/06/07 04:31:12;;;;;;;5.50;2.92;;;;;;;11.79;73.98;102418.50;5052349;28;20052;-52
2021/06/07 04:33:39;;;;;;;6.30;2.70;;;;;;;11.77;73.65;102416.84;5053567;28;20057;-57
2021/06/07 04:36:07;;;;;;;5.80;2.95;;;;;;;11.77;74.10;102415.06;5053758;28;20411;-58
2021/06/07 04:38:34;;;;;;;5.57;2.70;;;;;;;11.79;73.87;102418.50;5055420;28;20533;-58
2021/06/07 04:41:00;;;;;;;6.18;2.85;;;;;;;11.91;73.35;102416.22;5053750;28;20057;-53
2021/06/07 04:43:28;;;;;;;5.93;2.90;;;;;;;11.96;73.33;102425.66;5052662;28;20060;-58
2021/06/07 04:45:55;;;;;;;5.55;2.47;;;;;;;11.86;72.99;102423.47;5054276;28;20119;-53
2021/06/07 04:48:22;;;;;;;6.00;2.70;;;;;;;11.84;73.03;102419.13;5054750;28;20542;-58
2021/06/07 04:50:51;;;;;;;6.25;2.35;;;;;;;11.92;72.53;102424.06;5054771;28;20073;-58
2021/06/07 04:53:18;;;;;;;6.00;2.60;;;;;;;11.97;72.63;102424.72;5054914;28;20430;-58
2021/06/07 04:55:48;;;;;;;5.53;2.47;;;;;;;12.05;72.26;102420.88;5053760;28;20110;-58
2021/06/07 04:58:19;;;;;;;8.07;2.50;;;;;;;12.06;72.18;102419.97;5054585;28;20053;-58
2021/06/07 05:00:50;;;;;;;5.25;2.38;;;;;;;12.13;72.43;102419.63;5054927;28;20048;-58
2021/06/07 05:03:18;;;;;;;6.03;2.75;;;;;;;12.24;72.60;102419.09;5054618;28;20102;-58
2021/06/07 05:05:45;;;;;;;7.95;2.95;;;;;;;12.33;73.22;102421.28;5052603;28;20049;-58
2021/06/07 05:08:13;;;;;;;9.00;3.00;;;;;;;12.45;73.50;102421.66;5050901;28;20068;-58
2021/06/07 05:10:40;;;;;;;8.68;2.50;;;;;;;12.54;71.20;102417.69;5053997;28;20128;-54
2021/06/07 05:13:07;;;;;;;5.72;2.60;;;;;;;12.70;70.55;102421.31;5054362;28;20041;-53
2021/06/07 05:15:34;;;;;;;4.03;2.17;;;;;;;12.82;70.29;102417.22;5051158;28;20462;-53
2021/06/07 05:18:02;;;;;;;5.45;2.50;;;;;;;12.91;70.76;102416.75;5052634;28;20036;-58
2021/06/07 05:20:29;;;;;;;4.82;3.10;;;;;;;13.00;68.43;102424.19;5053023;28;20048;-53
2021/06/07 05:22:57;;;;;;;4.63;2.08;;;;;;;13.05;68.58;102423.97;5054348;28;20055;-55
2021/06/07 05:25:27;;;;;;;3.28;1.70;;;;;;;13.16;67.48;102420.78;5052902;28;20045;-58
2021/06/07 05:27:55;;;;;;;3.83;1.60;;;;;;;13.27;66.59;102423.72;5054123;28;20052;-58
2021/06/07 05:30:24;;;;;;;3.30;1.55;;;;;;;13.33;66.54;102422.56;5053617;28;20037;-53
2021/06/07 05:32:51;;;;;;;3.55;1.58;;;;;;;13.55;65.92;102413.53;5052201;28;20545;-53
2021/06/07 05:35:20;;;;;;;4.40;1.60;;;;;;;13.55;65.09;102421.47;5035450;28;20075;-57
2021/06/07 05:37:47;;;;;;;2.88;1.52;;;;;;;13.66;65.57;102417.31;5054013;28;20045;-58
2021/06/07 05:40:17;;;;;;;3.90;1.45;;;;;;;13.71;65.36;102421.50;5052753;28;20107;-57
2021/06/07 05:42:46;;;;;;;3.72;1.77;;;;;;;13.80;64.61;102419.22;5053686;28;20053;-57
2021/06/07 05:45:14;;;;;;;3.85;1.92;;;;;;;13.92;64.30;102424.78;5051601;28;20080;-53
2021/06/07 05:47:42;;;;;;;4.45;1.73;;;;;;;14.00;63.93;102428.72;5052053;28;20131;-54
2021/06/07 05:50:13;;;;;;;3.00;1.63;;;;;;;14.14;63.84;102429.78;5052371;28;20057;-57
2021/06/07 05:52:46;;;;;;;4.72;1.90;;;;;;;14.18;63.57;102431.31;5052341;28;20048;-53
2021/06/07 05:55:19;;;;;;;4.10;1.40;;;;;;;14.29;63.34;102431.56;5053679;28;20048;-53
2021/06/07 05:57:47;;;;;;;;;;;;;;;14.40;61.92;102432.72;5054624;28;20510;-54
2021/06/07 06:00:20;;;;;;;2.42;1.20;;;;;;;14.48;63.16;102431.38;5053581;28;20441;-52
2021/06/07 06:02:47;;;;;;;3.70;1.15;;;;;;;14.64;61.24;102430.53;5053528;28;20470;-54
2021/06/07 06:05:15;;;;;;;2.85;1.40;;;;;;;14.74;61.43;102431.72;5053712;28;20357;-53
2021/06/07 06:07:43;;;;;;;3.42;1.23;;;;;;;14.89;59.80;102422.03;5053277;28;20057;-52
2021/06/07 06:10:11;;;;;;;3.80;1.15;;;;;;;14.97;59.67;102421.56;5053480;28;20494;-58
2021/06/07 06:12:39;;;;;;;4.05;1.35;;;;;;;15.08;58.85;102423.56;5053302;28;20049;-58
2021/06/07 06:15:08;;;;;;;2.22;1.30;;;;;;;15.20;58.95;102421.06;5053189;28;20048;-59
2021/06/07 06:17:36;;;;;;;2.17;1.20;;;;;;;15.32;58.87;102431.88;5053259;28;20036;-54
2021/06/07 06:20:04;;;;;;;3.80;1.20;;;;;;;15.42;59.20;102433.03;5051970;28;20045;-53
2021/06/07 06:22:32;;;;;;;3.10;1.23;;;;;;;15.56;58.39;102429.53;5047641;28;20135;-54
2021/06/07 06:24:59;;;;;;;2.95;1.58;;;;;;;15.71;58.79;102431.22;5050185;28;20049;-58
2021/06/07 06:27:27;;;;;;;5.10;1.38;;;;;;;15.84;56.60;102433.16;5052963;28;20044;-58
2021/06/07 06:29:54;;;;;;;1.98;1.20;;;;;;;15.91;57.18;102429.19;5053047;28;20063;-53
2021/06/07 06:32:22;;;;;;;2.38;1.15;;;;;;;16.04;56.12;102424.78;5052783;28;20068;-58
2021/06/07 06:34:49;;;;;;;2.05;1.02;;;;;;;16.16;55.87;102439.06;5051468;28;20051;-58
2021/06/07 06:37:16;;;;;;;4.72;1.10;;;;;;;16.31;55.43;102420.47;5051555;28;20045;-54
2021/06/07 06:39:43;;;;;;;1.42;0.98;;;;;;;16.44;55.38;102425.84;5052829;28;20045;-54
2021/06/07 06:42:11;;;;;;;2.53;1.15;;;;;;;16.65;54.27;102429.75;5052584;28;20072;-54
2021/06/07 06:44:38;;;;;;;3.33;1.05;;;;;;;16.74;52.72;102428.25;5050692;28;20475;-58
2021/06/07 06:47:05;;;;;;;4.10;1.13;;;;;;;16.86;53.10;102432.75;5050159;28;20037;-56
2021/06/07 06:49:32;;;;;;;3.25;1.00;;;;;;;16.99;52.44;102430.19;5050800;28;20045;-53
2021/06/07 06:52:00;;;;;;;2.88;1.08;;;;;;;17.17;51.61;102429.88;5052121;28;20147;-53
2021/06/07 06:54:27;;;;;;;4.20;1.20;;;;;;;17.36;51.25;102434.78;5052691;28;20048;-58
2021/06/07 06:56:54;;;;;;;2.15;1.10;;;;;;;17.45;50.88;102427.97;5052555;28;20047;-55
2021/06/07 06:59:21;;;;;;;5.18;1.35;;;;;;;17.61;50.24;102430.44;5051268;28;20076;-59
2021/06/07 07:01:48;;;;;;;2.67;0.90;;;;;;;17.82;50.82;102430.69;5052250;28;20087;-55
2021/06/07 07:04:15;;;;;;;2.70;1.00;;;;;;;17.94;49.48;102432.53;5052248;28;20041;-58
2021/06/07 07:06:42;;;;;;;2.42;1.10;;;;;;;18.09;49.33;102433.22;5052578;28;20045;-55
2021/06/07 07:09:10;;;;;;;2.50;1.15;;;;;;;18.16;48.11;102425.66;5052675;28;20053;-55
2021/06/07 07:11:37;;;;;;;4.63;1.50;;;;;;;18.40;47.90;102431.00;5052190;28;20055;-55
2021/06/07 07:14:04;;;;;;;2.53;1.05;;;;;;;18.44;47.06;102423.66;5052132;28;20061;-54
2021/06/07 07:16:32;;;;;;;2.45;1.50;;;;;;;18.55;45.73;102423.69;5051990;28;20477;-54
2021/06/07 07:18:59;;;;;;;2.20;1.15;;;;;;;18.64;46.68;102417.69;5052331;28;20040;-54
2021/06/07 07:21:26;;;;;;;5.05;1.30;;;;;;;18.82;46.62;102425.28;5052201;28;20492;-56
2021/06/07 07:23:54;;;;;;;2.55;1.35;;;;;;;18.94;44.71;102423.50;5050932;28;20110;-59
2021/06/07 07:26:21;;;;;;;4.93;1.40;;;;;;;19.00;43.73;102418.56;5050832;28;20049;-60
2021/06/07 07:28:48;;;;;;;4.43;1.60;;;;;;;19.23;43.94;102415.94;5051068;28;20404;-59
2021/06/07 07:31:15;;;;;;;2.95;1.50;;;;;;;19.29;43.00;102419.94;5051857;28;20045;-58
2021/06/07 07:33:45;;;;;;;2.97;1.50;;;;;;;19.40;42.80;102417.28;5052437;28;20041;-59
2021/06/07 07:36:14;;;;;;;2.78;1.42;;;;;;;19.42;42.54;102426.03;5052459;28;20069;-59
2021/06/07 07:38:42;;;;;;;3.45;1.60;;;;;;;19.52;42.71;102424.31;5052176;28;20436;-59
2021/06/07 07:41:11;;;;;;;5.22;1.52;;;;;;;19.54;41.74;102429.56;5051826;28;20409;-53
2021/06/07 07:43:39;;;;;;;3.72;1.42;;;;;;;19.51;41.47;102422.66;5049293;28;20132;-54
2021/06/07 07:46:06;;;;;;;4.18;1.60;;;;;;;19.65;42.50;102418.88;5049737;28;20131;-55
2021/06/07 07:48:33;;;;;;;4.10;1.30;;;;;;;19.84;41.84;102420.13;5052043;28;20136;-59
2021/06/07 07:51:01;;;;;;;4.05;1.42;;;;;;;19.97;42.26;102417.31;5051632;28;20049;-58
2021/06/07 07:53:29;;;;;;;2.88;1.30;;;;;;;20.25;42.10;102414.09;5050642;28;20053;-59
2021/06/07 07:55:56;;;;;;;3.72;1.40;;;;;;;20.41;40.58;102416.38;5051558;28;20041;-56
2021/06/07 07:58:24;;;;;;;4.25;1.30;;;;;;;20.52;39.63;102422.63;5049209;28;20392;-59
2021/06/07 08:00:52;;;;;;;3.40;1.33;;;;;;;20.58;38.58;102417.63;5049989;28;20053;-59
2021/06/07 08:03:19;;;;;;;3.67;1.17;;;;;;;20.80;38.94;102415.84;5052377;28;20068;-56
2021/06/07 08:05:46;;;;;;;1.85;1.08;;;;;;;20.94;39.03;102420.03;5054356;28;20049;-60
2021/06/07 08:08:14;;;;;;;3.28;1.25;;;;;;;20.95;37.22;102419.06;5053808;28;20045;-53
2021/06/07 08:10:41;;;;;;;2.67;1.30;;;;;;;21.03;37.89;102421.94;5052555;28;20051;-58
2021/06/07 08:13:08;;;;;;;2.50;1.30;;;;;;;21.18;37.82;102416.25;5055270;28;20147;-56
2021/06/07 08:15:35;;;;;;;8.18;1.65;;;;;;;21.25;38.96;102414.75;5055231;28;20045;-54
2021/06/07 08:18:04;;;;;;;2.72;1.30;;;;;;;21.18;38.28;102413.59;5055430;28;20041;-59
2021/06/07 08:20:31;;;;;;;2.70;1.20;;;;;;;21.46;38.73;102412.03;5042008;28;20057;-60
2021/06/07 08:22:58;;;;;;;3.72;1.48;;;;;;;21.42;39.12;102411.47;5055349;28;20052;-55
2021/06/07 08:25:26;;;;;;;3.95;1.33;;;;;;;21.58;37.05;102407.47;5045655;28;20051;-55
2021/06/07 08:27:53;;;;;;;4.07;1.42;;;;;;;21.48;37.96;102409.22;5039117;28;20053;-56
2021/06/07 08:30:21;;;;;;;4.13;1.40;;;;;;;21.77;38.49;102414.72;5053286;28;20056;-58
2021/06/07 08:32:49;;;;;;;2.72;1.50;;;;;;;21.69;37.55;102404.72;5043449;28;20045;-56
2021/06/07 08:35:16;;;;;;;6.90;1.60;;;;;;;21.81;37.51;102401.91;5036006;28;20136;-57
2021/06/07 08:37:44;;;;;;;8.82;1.80;;;;;;;22.02;37.84;102410.72;5020376;28;20045;-60
2021/06/07 08:40:13;;;;;;;4.18;1.30;;;;;;;22.10;38.02;102410.88;5043932;28;20407;-59
2021/06/07 08:42:42;;;;;;;8.80;1.67;;;;;;;22.22;37.20;102405.38;5038466;28;20037;-62
2021/06/07 08:45:24;;;;;;;4.32;1.70;;;;;;;22.25;36.87;102411.31;5035624;28;20056;-56
2021/06/07 08:47:53;;;;;;;4.75;1.70;;;;;;;22.50;37.29;102402.91;5036392;28;20037;-57
2021/06/07 08:50:28;;;;;;;3.75;1.30;;;;;;;22.53;37.80;102405.28;5072858;28;20077;-59
2021/06/07 08:52:56;;;;;;;5.13;1.48;;;;;;;22.57;37.40;102412.06;5040569;28;20084;-59
2021/06/07 08:55:26;;;;;;;4.47;1.42;;;;;;;22.79;37.74;102411.75;5053821;28;20047;-59
2021/06/07 08:57:57;;;;;;;4.57;1.50;;;;;;;22.68;36.80;102408.41;5053502;28;20061;-58
2021/06/07 09:00:28;;;;;;;2.33;1.27;;;;;;;22.73;37.90;102414.19;5043951;28;20057;-58
2021/06/07 09:03:01;;;;;;;3.75;1.40;;;;;;;23.00;36.17;102408.06;5044016;28;20392;-57
2021/06/07 09:05:30;;;;;;;4.25;1.20;;;;;;;23.16;35.66;102403.97;5036485;28;20060;-58
2021/06/07 09:08:01;;;;;;;3.38;1.38;;;;;;;23.10;34.97;102402.69;5052372;28;20049;-58
2021/06/07 09:10:31;;;;;;;1.52;1.00;;;;;;;22.94;34.69;102409.47;5057795;28;20053;-56
2021/06/07 09:13:01;;;;;;;1.55;1.10;;;;;;;23.15;35.24;102410.31;5043648;28;20052;-58
2021/06/07 09:15:33;;;;;;;2.72;1.10;;;;;;;23.34;34.65;102399.53;5052599;28;20115;-57
2021/06/07 09:18:02;;;;;;;2.33;1.10;;;;;;;23.39;35.01;102405.28;5040108;28;20144;-56
2021/06/07 09:20:30;;;;;;;5.50;1.30;;;;;;;23.54;34.87;102400.28;5042071;28;20327;-58
2021/06/07 09:23:02;;;;;;;2.35;1.10;;;;;;;23.72;34.48;102397.66;5036169;28;20041;-58
2021/06/07 09:25:33;;;;;;;3.70;1.33;;;;;;;23.79;35.09;102404.13;5053110;28;20049;-59
2021/06/07 09:28:21;;;;;;;5.00;1.58;;;;;;;23.96;34.00;102405.19;5054488;28;20045;-59
2021/06/07 09:30:58;;;;;;;4.07;1.38;;;;;;;23.98;33.91;102402.34;5054328;28;20052;-58
2021/06/07 09:33:29;;;;;;;2.05;0.90;;;;;;;24.12;33.71;102399.16;5052840;28;20055;-57
2021/06/07 09:36:29;;;;;;;5.15;1.73;;;;;;;24.13;34.30;102398.16;5052688;28;20052;-57
2021/06/07 09:39:02;;;;;;;5.55;1.27;;;;;;;24.34;34.19;102404.22;5045451;28;20068;-58
2021/06/07 09:42:04;;;;;;;3.42;1.17;;;;;;;24.54;33.18;102404.91;5054142;28;20416;-59
2021/06/07 09:44:46;;;;;;;2.92;1.30;;;;;;;24.57;32.47;102402.75;5050911;28;20400;-57
2021/06/07 09:47:22;;;;;;;2.70;1.25;;;;;;;24.61;32.56;102411.34;5051905;28;20051;-57
2021/06/07 09:49:56;;;;;;;2.60;1.00;;;;;;;24.70;33.55;102405.06;5053808;28;20455;-59
2021/06/07 09:52:33;;;;;;;4.45;1.20;;;;;;;24.91;34.22;102401.19;5051209;28;20174;-57
2021/06/07 09:55:06;;;;;;;2.95;1.30;;;;;;;24.94;32.39;102406.28;5051628;28;20087;-59
2021/06/07 09:57:56;;;;;;;2.92;1.27;;;;;;;25.23;33.06;102405.09;5053246;28;20055;-57
2021/06/07 10:00:40;;;;;;;3.88;1.38;;;;;;;25.13;31.85;102413.28;5051359;28;20045;-58
2021/06/07 10:03:22;;;;;;;4.20;1.45;;;;;;;25.52;31.19;102401.22;5052923;28;20057;-58
2021/06/07 10:05:54;;;;;;;3.13;1.33;;;;;;;25.43;32.51;102409.28;5053643;28;20053;-58
2021/06/07 10:08:24;;;;;;;3.22;1.42;;;;;;;25.58;31.90;102404.13;5051531;28;20434;-60
2021/06/07 10:10:52;;;;;;;2.63;1.17;;;;;;;25.62;31.86;102402.78;5049210;28;20053;-58
2021/06/07 10:13:19;;;;;;;1.90;1.10;;;;;;;25.46;31.87;102400.03;5034558;28;20041;-58
2021/06/07 10:15:48;;;;;;;2.95;1.30;;;;;;;25.52;31.91;102398.53;5051415;28;20049;-57
2021/06/07 10:18:18;;;;;;;3.10;1.20;;;;;;;25.70;30.78;102387.66;5033550;28;20041;-58
2021/06/07 10:20:49;;;;;;;2.85;1.38;;;;;;;26.00;29.27;102391.66;5053107;28;20111;-58
2021/06/07 10:23:25;;;;;;;2.03;1.10;;;;;;;26.07;30.58;102390.00;5051766;28;20061;-59
2021/06/07 10:25:54;;;;;;;2.42;0.90;;;;;;;26.06;30.29;102392.84;5049851;28;20526;-57
2021/06/07 10:28:26;;;;;;;4.15;1.27;;;;;;;26.42;31.20;102385.31;5051362;28;20192;-58
2021/06/07 10:30:56;;;;;;;2.97;1.48;;;;;;;26.18;31.40;102385.28;5051721;28;20045;-58
2021/06/07 10:33:33;;;;;;;2.15;1.10;;;;;;;26.25;31.06;102381.75;5052655;28;20052;-58
2021/06/07 10:36:21;;;;;;;2.08;1.10;;;;;;;26.49;29.53;102380.94;5052917;28;20047;-58
2021/06/07 10:38:50;;;;;;;2.25;1.00;;;;;;;26.81;28.76;102381.94;5052778;28;20819;-58
2021/06/07 10:41:25;;;;;;;5.63;1.38;;;;;;;26.87;28.62;102382.28;5051516;28;20056;-57
2021/06/07 10:43:54;;;;;;;2.15;0.95;;;;;;;27.10;29.28;102369.72;5052712;28;20055;-58
2021/06/07 10:46:28;;;;;;;2.05;0.98;;;;;;;26.82;27.83;102380.94;5051244;28;20131;-58
2021/06/07 10:48:56;;;;;;;5.28;1.17;;;;;;;26.60;25.16;102381.59;5049615;28;20079;-58
2021/06/07 10:51:25;;;;;;;2.22;1.02;;;;;;;26.61;27.04;102381.44;5051322;28;20110;-58
2021/06/07 10:53:54;;;;;;;1.58;0.95;;;;;;;26.69;27.84;102372.47;5051437;28;20496;-59
2021/06/07 10:56:27;;;;;;;3.72;1.20;;;;;;;26.73;28.30;102373.03;5052533;28;20049;-58
2021/06/07 10:58:57;;;;;;;5.00;1.50;;;;;;;27.07;28.40;102371.94;5052633;28;20052;-58
2021/06/07 11:01:47;;;;;;;3.60;1.17;;;;;;;27.21;28.99;102370.38;5051539;28;20059;-59
2021/06/07 11:04:43;;;;;;;2.95;1.40;;;;;;;27.54;28.65;102364.88;5051430;28;20490;-58
2021/06/07 11:07:19;;;;;;;2.65;1.58;;;;;;;27.49;27.75;102370.81;5052875;28;20045;-59
2021/06/07 11:10:08;;;;;;;3.47;0.95;;;;;;;27.43;27.23;102375.06;5052641;28;20045;-59
2021/06/07 11:12:37;;;;;;;5.78;1.27;;;;;;;27.53;27.28;102364.03;5050728;28;20850;-59
2021/06/07 11:15:24;;;;;;;2.88;1.20;;;;;;;28.02;27.11;102357.53;5051591;28;20052;-59
2021/06/07 11:17:52;;;;;;;2.50;1.20;;;;;;;28.45;27.48;102367.84;5050844;28;20091;-57
2021/06/07 11:20:34;;;;;;;2.55;1.00;;;;;;;28.18;27.74;102361.97;5050646;28;20087;-59
2021/06/07 11:23:06;;;;;;;3.78;1.30;;;;;;;27.97;28.21;102354.50;5052391;28;20053;-59
2021/06/07 11:25:46;;;;;;;2.65;1.38;;;;;;;27.99;28.54;102352.44;5052102;28;20053;-58
2021/06/07 11:28:40;;;;;;;3.03;1.30;;;;;;;28.23;28.91;102358.72;5052308;28;20049;-57
2021/06/07 11:31:19;;;;;;;4.13;1.20;;;;;;;28.46;27.46;102358.72;5051288;28;20057;-57
2021/06/07 11:34:04;;;;;;;3.25;1.27;;;;;;;28.61;26.47;102359.56;5050463;28;20073;-57
2021/06/07 11:36:40;;;;;;;3.03;1.75;;;;;;;28.67;25.06;102350.75;5051481;28;20044;-57
2021/06/07 11:39:43;;;;;;;2.25;1.20;;;;;;;28.90;25.89;102354.41;5051215;28;20036;-57